sensor_id;sensor_type;location;lat;lon;timestamp;pressure;altitude;pressure_sealevel;temperature;humidity
63194;BME280;49289;51.670;5.624;2023-05-27T00:00:45;103029.59;;;19.10;42.38
63194;BME280;49289;51.670;5.624;2023-05-27T00:02:33;103061.81;;;19.17;42.61
63194;BME280;49289;51.670;5.624;2023-05-27T00:04:21;103056.94;;;19.00;42.34
63194;BME280;49289;51.670;5.624;2023-05-27T00:06:09;103062.95;;;18.84;42.78
63194;BME280;49289;51.670;5.624;2023-05-27T00:07:57;103062.36;;;18.86;42.95
63194;BME280;49289;51.670;5.624;2023-05-27T00:09:45;103059.31;;;18.93;42.79
63194;BME280;49289;51.670;5.624;2023-05-27T00:11:33;103066.48;;;18.56;42.79
63194;BME280;49289;51.670;5.624;2023-05-27T00:13:20;103065.41;;;18.80;43.14
63194;BME280;49289;51.670;5.624;2023-05-27T00:15:09;103065.30;;;18.77;43.25
63194;BME280;49289;51.670;5.624;2023-05-27T00:16:56;103061.31;;;18.39;43.30
63194;BME280;49289;51.670;5.624;2023-05-27T00:18:43;103061.39;;;18.62;43.41
63194;BME280;49289;51.670;5.624;2023-05-27T00:20:30;103056.33;;;18.48;43.38
63194;BME280;49289;51.670;5.624;2023-05-27T00:22:18;103056.73;;;18.52;43.39
63194;BME280;49289;51.670;5.624;2023-05-27T00:24:06;103057.64;;;18.67;43.22
63194;BME280;49289;51.670;5.624;2023-05-27T00:25:54;103053.77;;;18.58;43.55
63194;BME280;49289;51.670;5.624;2023-05-27T00:27:42;103047.67;;;18.61;43.64
63194;BME280;49289;51.670;5.624;2023-05-27T00:29:30;103047.33;;;18.29;43.59
63194;BME280;49289;51.670;5.624;2023-05-27T00:31:18;103046.64;;;18.45;43.57
63194;BME280;49289;51.670;5.624;2023-05-27T00:33:05;103035.06;;;18.21;44.10
63194;BME280;49289;51.670;5.624;2023-05-27T00:34:52;103029.16;;;18.28;44.03
63194;BME280;49289;51.670;5.624;2023-05-27T00:36:39;103031.52;;;18.33;43.98
63194;BME280;49289;51.670;5.624;2023-05-27T00:38:26;103028.98;;;18.42;44.13
63194;BME280;49289;51.670;5.624;2023-05-27T00:40:14;103043.00;;;18.37;44.04
63194;BME280;49289;51.670;5.624;2023-05-27T00:42:01;103050.19;;;18.44;44.30
63194;BME280;49289;51.670;5.624;2023-05-27T00:43:49;103030.84;;;18.20;44.02
63194;BME280;49289;51.670;5.624;2023-05-27T00:45:36;103045.03;;;18.02;44.42
63194;BME280;49289;51.670;5.624;2023-05-27T00:47:24;103046.84;;;18.35;44.71
63194;BME280;49289;51.670;5.624;2023-05-27T00:49:12;103050.28;;;18.42;44.68
63194;BME280;49289;51.670;5.624;2023-05-27T00:50:59;103029.27;;;18.47;44.63
63194;BME280;49289;51.670;5.624;2023-05-27T00:52:46;103021.39;;;18.20;44.52
63194;BME280;49289;51.670;5.624;2023-05-27T00:54:33;103043.13;;;18.42;44.64
63194;BME280;49289;51.670;5.624;2023-05-27T00:56:20;103045.55;;;18.42;44.58
63194;BME280;49289;51.670;5.624;2023-05-27T00:58:07;103015.77;;;17.82;45.01
63194;BME280;49289;51.670;5.624;2023-05-27T00:59:54;103017.30;;;17.90;45.48
63194;BME280;49289;51.670;5.624;2023-05-27T01:01:41;103043.36;;;18.11;45.29
63194;BME280;49289;51.670;5.624;2023-05-27T01:03:28;103024.35;;;18.26;45.42
63194;BME280;49289;51.670;5.624;2023-05-27T01:05:16;103014.17;;;17.89;44.97
63194;BME280;49289;51.670;5.624;2023-05-27T01:07:06;103035.59;;;18.20;45.32
63194;BME280;49289;51.670;5.624;2023-05-27T01:08:56;103014.34;;;18.19;45.05
63194;BME280;49289;51.670;5.624;2023-05-27T01:10:43;103020.56;;;18.23;45.07
63194;BME280;49289;51.670;5.624;2023-05-27T01:12:31;103016.01;;;18.19;45.04
63194;BME280;49289;51.670;5.624;2023-05-27T01:14:16;103039.69;;;18.37;45.16
63194;BME280;49289;51.670;5.624;2023-05-27T01:16:04;103030.23;;;18.30;44.99
63194;BME280;49289;51.670;5.624;2023-05-27T01:17:51;103031.33;;;18.26;45.12
63194;BME280;49289;51.670;5.624;2023-05-27T01:19:40;103031.48;;;18.39;45.33
63194;BME280;49289;51.670;5.624;2023-05-27T01:21:27;103033.70;;;18.35;45.27
63194;BME280;49289;51.670;5.624;2023-05-27T01:23:15;103033.58;;;18.36;45.17
63194;BME280;49289;51.670;5.624;2023-05-27T01:25:03;103009.28;;;18.24;45.34
63194;BME280;49289;51.670;5.624;2023-05-27T01:26:51;103027.84;;;18.40;45.40
63194;BME280;49289;51.670;5.624;2023-05-27T01:28:39;103030.34;;;18.43;45.39
63194;BME280;49289;51.670;5.624;2023-05-27T01:30:27;103030.61;;;18.20;45.37
63194;BME280;49289;51.670;5.624;2023-05-27T01:32:19;103025.85;;;18.32;45.62
63194;BME280;49289;51.670;5.624;2023-05-27T01:34:05;103027.82;;;18.39;45.80
63194;BME280;49289;51.670;5.624;2023-05-27T01:35:52;103023.93;;;18.47;45.72
63194;BME280;49289;51.670;5.624;2023-05-27T01:37:40;103005.05;;;18.32;45.76
63194;BME280;49289;51.670;5.624;2023-05-27T01:39:28;103023.59;;;18.48;45.62
63194;BME280;49289;51.670;5.624;2023-05-27T01:41:16;103027.91;;;18.35;45.56
63194;BME280;49289;51.670;5.624;2023-05-27T01:43:04;103023.83;;;18.32;45.56
63194;BME280;49289;51.670;5.624;2023-05-27T01:44:52;103021.58;;;18.37;45.74
63194;BME280;49289;51.670;5.624;2023-05-27T01:46:40;102998.91;;;18.12;45.91
63194;BME280;49289;51.670;5.624;2023-05-27T01:50:14;103021.83;;;18.29;45.95
63194;BME280;49289;51.670;5.624;2023-05-27T01:52:01;103021.42;;;18.11;45.67
63194;BME280;49289;51.670;5.624;2023-05-27T01:53:48;103027.54;;;18.20;45.96
63194;BME280;49289;51.670;5.624;2023-05-27T01:55:35;103021.45;;;18.18;46.21
63194;BME280;49289;51.670;5.624;2023-05-27T01:57:23;103000.66;;;18.06;46.15
63194;BME280;49289;51.670;5.624;2023-05-27T01:59:09;103023.02;;;18.17;46.23
63194;BME280;49289;51.670;5.624;2023-05-27T02:00:56;103001.34;;;18.02;46.40
63194;BME280;49289;51.670;5.624;2023-05-27T02:02:43;103022.69;;;18.14;46.29
63194;BME280;49289;51.670;5.624;2023-05-27T02:04:30;103018.83;;;18.19;46.40
63194;BME280;49289;51.670;5.624;2023-05-27T02:06:17;102998.78;;;18.07;46.18
63194;BME280;49289;51.670;5.624;2023-05-27T02:08:04;102997.88;;;17.77;46.08
63194;BME280;49289;51.670;5.624;2023-05-27T02:09:52;103018.89;;;17.92;46.54
63194;BME280;49289;51.670;5.624;2023-05-27T02:11:40;103023.33;;;17.95;46.52
63194;BME280;49289;51.670;5.624;2023-05-27T02:13:28;103024.29;;;18.03;46.36
63194;BME280;49289;51.670;5.624;2023-05-27T02:15:17;103021.42;;;17.62;46.39
63194;BME280;49289;51.670;5.624;2023-05-27T02:17:04;103021.38;;;17.75;46.66
63194;BME280;49289;51.670;5.624;2023-05-27T02:18:51;102997.46;;;17.69;46.90
63194;BME280;49289;51.670;5.624;2023-05-27T02:20:38;102989.75;;;17.56;46.84
63194;BME280;49289;51.670;5.624;2023-05-27T02:22:26;102998.17;;;17.67;47.21
63194;BME280;49289;51.670;5.624;2023-05-27T02:24:12;102994.96;;;17.78;46.77
63194;BME280;49289;51.670;5.624;2023-05-27T02:25:59;103021.84;;;17.88;47.06
63194;BME280;49289;51.670;5.624;2023-05-27T02:27:46;102999.65;;;17.70;46.98
63194;BME280;49289;51.670;5.624;2023-05-27T02:29:33;102996.05;;;17.75;47.09
63194;BME280;49289;51.670;5.624;2023-05-27T02:31:20;102998.11;;;17.71;47.16
63194;BME280;49289;51.670;5.624;2023-05-27T02:33:07;102992.66;;;17.75;47.03
63194;BME280;49289;51.670;5.624;2023-05-27T02:34:54;103015.40;;;17.73;47.17
63194;BME280;49289;51.670;5.624;2023-05-27T02:36:41;103004.84;;;17.64;47.08
63194;BME280;49289;51.670;5.624;2023-05-27T02:38:29;103018.64;;;17.83;47.11
63194;BME280;49289;51.670;5.624;2023-05-27T02:40:20;103017.44;;;17.67;47.18
63194;BME280;49289;51.670;5.624;2023-05-27T02:42:06;103014.64;;;17.69;47.20
63194;BME280;49289;51.670;5.624;2023-05-27T02:43:54;103018.55;;;17.58;47.35
63194;BME280;49289;51.670;5.624;2023-05-27T02:45:42;103017.77;;;17.59;47.32
63194;BME280;49289;51.670;5.624;2023-05-27T02:47:30;103021.40;;;17.51;47.52
63194;BME280;49289;51.670;5.624;2023-05-27T02:49:18;103018.05;;;17.56;47.60
63194;BME280;49289;51.670;5.624;2023-05-27T02:51:05;102998.71;;;17.34;47.49
63194;BME280;49289;51.670;5.624;2023-05-27T02:52:53;103026.80;;;17.53;47.59
63194;BME280;49289;51.670;5.624;2023-05-27T02:54:42;103022.93;;;17.40;47.85
63194;BME280;49289;51.670;5.624;2023-05-27T02:56:30;103026.01;;;17.33;48.03
63194;BME280;49289;51.670;5.624;2023-05-27T02:58:18;103032.34;;;17.34;48.00
63194;BME280;49289;51.670;5.624;2023-05-27T03:00:06;103032.55;;;17.33;47.99
63194;BME280;49289;51.670;5.624;2023-05-27T03:01:54;103030.59;;;17.37;47.79
63194;BME280;49289;51.670;5.624;2023-05-27T03:03:42;103032.98;;;17.33;48.06
63194;BME280;49289;51.670;5.624;2023-05-27T03:05:30;103026.58;;;17.28;47.93
63194;BME280;49289;51.670;5.624;2023-05-27T03:07:17;103028.26;;;17.17;48.26
63194;BME280;49289;51.670;5.624;2023-05-27T03:09:05;103013.80;;;17.03;48.35
63194;BME280;49289;51.670;5.624;2023-05-27T03:10:53;103033.80;;;17.15;48.33
63194;BME280;49289;51.670;5.624;2023-05-27T03:12:42;103031.45;;;17.13;48.56
63194;BME280;49289;51.670;5.624;2023-05-27T03:14:30;103029.86;;;17.09;48.62
63194;BME280;49289;51.670;5.624;2023-05-27T03:16:18;103033.41;;;17.10;48.60
63194;BME280;49289;51.670;5.624;2023-05-27T03:18:05;103007.22;;;16.99;48.54
63194;BME280;49289;51.670;5.624;2023-05-27T03:19:52;103013.22;;;16.98;48.84
63194;BME280;49289;51.670;5.624;2023-05-27T03:21:39;103016.27;;;16.86;48.79
63194;BME280;49289;51.670;5.624;2023-05-27T03:23:26;103014.69;;;16.83;49.15
63194;BME280;49289;51.670;5.624;2023-05-27T03:25:13;103014.41;;;16.92;49.26
63194;BME280;49289;51.670;5.624;2023-05-27T03:27:00;103014.64;;;16.88;48.91
63194;BME280;49289;51.670;5.624;2023-05-27T03:28:47;103015.44;;;16.86;48.83
63194;BME280;49289;51.670;5.624;2023-05-27T03:30:35;103006.41;;;16.86;48.76
63194;BME280;49289;51.670;5.624;2023-05-27T03:32:23;103025.69;;;16.99;48.88
63194;BME280;49289;51.670;5.624;2023-05-27T03:34:11;103022.02;;;17.10;48.89
63194;BME280;49289;51.670;5.624;2023-05-27T03:35:59;103018.62;;;17.00;48.70
63194;BME280;49289;51.670;5.624;2023-05-27T03:37:46;103000.63;;;16.77;49.04
63194;BME280;49289;51.670;5.624;2023-05-27T03:39:34;103020.81;;;16.92;49.14
63194;BME280;49289;51.670;5.624;2023-05-27T03:41:22;102995.50;;;16.78;49.20
63194;BME280;49289;51.670;5.624;2023-05-27T03:43:10;103018.92;;;16.84;49.49
63194;BME280;49289;51.670;5.624;2023-05-27T03:44:58;102993.53;;;16.75;49.30
63194;BME280;49289;51.670;5.624;2023-05-27T03:46:46;103007.02;;;16.92;49.40
63194;BME280;49289;51.670;5.624;2023-05-27T03:48:34;103005.56;;;16.89;49.65
63194;BME280;49289;51.670;5.624;2023-05-27T03:50:22;103013.39;;;16.83;49.65
63194;BME280;49289;51.670;5.624;2023-05-27T03:52:09;102986.13;;;16.79;49.61
63194;BME280;49289;51.670;5.624;2023-05-27T03:53:57;102984.41;;;16.73;49.66
63194;BME280;49289;51.670;5.624;2023-05-27T03:55:45;103008.77;;;16.84;49.67
63194;BME280;49289;51.670;5.624;2023-05-27T03:57:33;103002.58;;;16.87;49.69
63194;BME280;49289;51.670;5.624;2023-05-27T03:59:22;103004.34;;;17.03;49.44
63194;BME280;49289;51.670;5.624;2023-05-27T04:01:10;103006.09;;;16.90;49.36
63194;BME280;49289;51.670;5.624;2023-05-27T04:02:57;103003.81;;;16.81;49.68
63194;BME280;49289;51.670;5.624;2023-05-27T04:04:45;102978.38;;;16.66;49.93
63194;BME280;49289;51.670;5.624;2023-05-27T04:06:33;102999.27;;;16.84;50.10
63194;BME280;49289;51.670;5.624;2023-05-27T04:08:21;102994.73;;;16.88;50.09
63194;BME280;49289;51.670;5.624;2023-05-27T04:10:10;102969.16;;;16.73;49.93
63194;BME280;49289;51.670;5.624;2023-05-27T04:11:57;102999.14;;;16.90;49.92
63194;BME280;49289;51.670;5.624;2023-05-27T04:13:44;102978.56;;;16.77;49.78
63194;BME280;49289;51.670;5.624;2023-05-27T04:15:31;102978.75;;;16.78;50.04
63194;BME280;49289;51.670;5.624;2023-05-27T04:17:18;102977.53;;;16.80;49.94
63194;BME280;49289;51.670;5.624;2023-05-27T04:19:05;102978.76;;;16.79;50.04
63194;BME280;49289;51.670;5.624;2023-05-27T04:20:52;103003.97;;;16.84;49.90
63194;BME280;49289;51.670;5.624;2023-05-27T04:22:40;102999.95;;;16.88;50.09
63194;BME280;49289;51.670;5.624;2023-05-27T04:24:27;102970.02;;;16.68;50.23
63194;BME280;49289;51.670;5.624;2023-05-27T04:26:15;102970.73;;;16.81;50.28
63194;BME280;49289;51.670;5.624;2023-05-27T04:28:02;102994.55;;;16.93;50.33
63194;BME280;49289;51.670;5.624;2023-05-27T04:29:49;102995.59;;;16.94;50.06
63194;BME280;49289;51.670;5.624;2023-05-27T04:31:36;102969.05;;;16.69;50.12
63194;BME280;49289;51.670;5.624;2023-05-27T04:33:23;102983.47;;;16.63;50.45
63194;BME280;49289;51.670;5.624;2023-05-27T04:35:10;102968.13;;;16.74;50.41
63194;BME280;49289;51.670;5.624;2023-05-27T04:36:57;102988.52;;;16.79;50.47
63194;BME280;49289;51.670;5.624;2023-05-27T04:38:44;102983.95;;;16.88;50.61
63194;BME280;49289;51.670;5.624;2023-05-27T04:40:31;102983.59;;;17.00;50.72
63194;BME280;49289;51.670;5.624;2023-05-27T04:42:18;102962.66;;;16.96;50.65
63194;BME280;49289;51.670;5.624;2023-05-27T04:44:05;102985.20;;;17.15;50.61
63194;BME280;49289;51.670;5.624;2023-05-27T04:45:53;102979.39;;;17.23;50.72
63194;BME280;49289;51.670;5.624;2023-05-27T04:47:40;102982.26;;;17.23;50.69
63194;BME280;49289;51.670;5.624;2023-05-27T04:49:27;102983.61;;;17.27;50.58
63194;BME280;49289;51.670;5.624;2023-05-27T04:51:14;102987.02;;;17.39;50.17
63194;BME280;49289;51.670;5.624;2023-05-27T04:53:01;102961.46;;;17.25;50.16
63194;BME280;49289;51.670;5.624;2023-05-27T04:54:48;102978.55;;;17.15;50.15
63194;BME280;49289;51.670;5.624;2023-05-27T04:56:35;102974.50;;;17.24;50.08
63194;BME280;49289;51.670;5.624;2023-05-27T04:58:22;102974.91;;;17.29;50.18
63194;BME280;49289;51.670;5.624;2023-05-27T05:00:10;102955.47;;;17.04;50.56
63194;BME280;49289;51.670;5.624;2023-05-27T05:02:25;102975.00;;;17.31;50.60
63194;BME280;49289;51.670;5.624;2023-05-27T05:04:12;102972.18;;;17.29;50.77
63194;BME280;49289;51.670;5.624;2023-05-27T05:06:01;102977.09;;;17.42;50.62
63194;BME280;49289;51.670;5.624;2023-05-27T05:07:48;102952.33;;;17.15;50.55
63194;BME280;49289;51.670;5.624;2023-05-27T05:09:36;102970.56;;;17.41;50.40
63194;BME280;49289;51.670;5.624;2023-05-27T05:11:23;102973.98;;;17.41;50.42
63194;BME280;49289;51.670;5.624;2023-05-27T05:13:11;102973.91;;;17.42;50.91
63194;BME280;49289;51.670;5.624;2023-05-27T05:14:59;102976.98;;;17.42;50.62
63194;BME280;49289;51.670;5.624;2023-05-27T05:16:47;102972.89;;;17.28;50.50
63194;BME280;49289;51.670;5.624;2023-05-27T05:18:35;102969.06;;;17.22;51.07
63194;BME280;49289;51.670;5.624;2023-05-27T05:20:23;102966.99;;;17.09;51.07
63194;BME280;49289;51.670;5.624;2023-05-27T05:22:11;102964.91;;;16.82;51.35
63194;BME280;49289;51.670;5.624;2023-05-27T05:23:59;102969.13;;;17.22;51.22
63194;BME280;49289;51.670;5.624;2023-05-27T05:25:46;102947.21;;;17.22;51.15
63194;BME280;49289;51.670;5.624;2023-05-27T05:27:33;102972.69;;;16.99;51.33
63194;BME280;49289;51.670;5.624;2023-05-27T05:29:20;102942.63;;;16.78;51.69
63194;BME280;49289;51.670;5.624;2023-05-27T05:31:07;102943.48;;;16.67;52.14
63194;BME280;49289;51.670;5.624;2023-05-27T05:32:54;102959.15;;;17.10;51.77
63194;BME280;49289;51.670;5.624;2023-05-27T05:34:41;102931.97;;;16.88;52.33
63194;BME280;49289;51.670;5.624;2023-05-27T05:36:29;102960.67;;;17.39;51.60
63194;BME280;49289;51.670;5.624;2023-05-27T05:38:17;102968.08;;;17.73;51.34
63194;BME280;49289;51.670;5.624;2023-05-27T05:40:06;102970.28;;;17.52;51.25
63194;BME280;49289;51.670;5.624;2023-05-27T05:41:53;102967.21;;;17.16;51.77
63194;BME280;49289;51.670;5.624;2023-05-27T05:43:40;102962.36;;;17.37;51.64
63194;BME280;49289;51.670;5.624;2023-05-27T05:45:27;102941.23;;;16.95;52.22
63194;BME280;49289;51.670;5.624;2023-05-27T05:47:14;102959.47;;;17.44;51.92
63194;BME280;49289;51.670;5.624;2023-05-27T05:49:03;102950.25;;;17.92;51.16
63194;BME280;49289;51.670;5.624;2023-05-27T05:50:50;102936.95;;;17.53;51.08
63194;BME280;49289;51.670;5.624;2023-05-27T05:52:37;102959.48;;;17.62;51.47
63194;BME280;49289;51.670;5.624;2023-05-27T05:54:24;102960.11;;;17.72;51.71
63194;BME280;49289;51.670;5.624;2023-05-27T05:56:11;102956.64;;;17.90;51.22
63194;BME280;49289;51.670;5.624;2023-05-27T05:57:59;102945.62;;;17.92;51.07
63194;BME280;49289;51.670;5.624;2023-05-27T05:59:47;102957.03;;;17.73;51.34
63194;BME280;49289;51.670;5.624;2023-05-27T06:01:35;102953.10;;;17.78;51.53
63194;BME280;49289;51.670;5.624;2023-05-27T06:03:22;102927.85;;;17.48;51.85
63194;BME280;49289;51.670;5.624;2023-05-27T06:05:10;102930.94;;;17.42;51.47
63194;BME280;49289;51.670;5.624;2023-05-27T06:06:58;102959.15;;;17.64;51.43
63194;BME280;49289;51.670;5.624;2023-05-27T06:08:46;102953.33;;;17.67;51.47
63194;BME280;49289;51.670;5.624;2023-05-27T06:10:34;102940.06;;;17.99;51.29
63194;BME280;49289;51.670;5.624;2023-05-27T06:12:22;102950.88;;;17.71;51.27
63194;BME280;49289;51.670;5.624;2023-05-27T06:14:10;102954.78;;;18.22;50.88
63194;BME280;49289;51.670;5.624;2023-05-27T06:15:58;102949.31;;;18.12;50.64
63194;BME280;49289;51.670;5.624;2023-05-27T06:17:46;102949.07;;;18.06;50.92
63194;BME280;49289;51.670;5.624;2023-05-27T06:19:34;102944.34;;;18.35;50.77
63194;BME280;49289;51.670;5.624;2023-05-27T06:21:22;102942.68;;;18.41;50.59
63194;BME280;49289;51.670;5.624;2023-05-27T06:23:09;102942.13;;;18.11;50.32
63194;BME280;49289;51.670;5.624;2023-05-27T06:24:58;102919.81;;;18.58;50.06
63194;BME280;49289;51.670;5.624;2023-05-27T06:26:46;102926.94;;;18.75;49.45
63194;BME280;49289;51.670;5.624;2023-05-27T06:28:34;102938.27;;;18.79;49.87
63194;BME280;49289;51.670;5.624;2023-05-27T06:30:22;102934.41;;;18.92;50.00
63194;BME280;49289;51.670;5.624;2023-05-27T06:32:10;102932.43;;;18.75;50.05
63194;BME280;49289;51.670;5.624;2023-05-27T06:33:58;102906.19;;;18.72;50.06
63194;BME280;49289;51.670;5.624;2023-05-27T06:35:46;102907.70;;;19.16;49.27
63194;BME280;49289;51.670;5.624;2023-05-27T06:37:33;102902.50;;;18.87;49.12
63194;BME280;49289;51.670;5.624;2023-05-27T06:39:20;102934.42;;;18.99;48.98
63194;BME280;49289;51.670;5.624;2023-05-27T06:41:07;102903.41;;;19.12;49.12
63194;BME280;49289;51.670;5.624;2023-05-27T06:42:54;102909.22;;;19.03;48.77
63194;BME280;49289;51.670;5.624;2023-05-27T06:44:41;102911.71;;;18.45;49.58
63194;BME280;49289;51.670;5.624;2023-05-27T06:46:28;102900.86;;;18.31;49.61
63194;BME280;49289;51.670;5.624;2023-05-27T06:48:15;102929.91;;;18.68;49.66
63194;BME280;49289;51.670;5.624;2023-05-27T06:50:02;102901.17;;;18.30;50.52
63194;BME280;49289;51.670;5.624;2023-05-27T06:51:49;102923.00;;;19.27;49.34
63194;BME280;49289;51.670;5.624;2023-05-27T06:53:36;102901.20;;;19.49;48.85
63194;BME280;49289;51.670;5.624;2023-05-27T06:55:23;102896.91;;;18.58;49.37
63194;BME280;49289;51.670;5.624;2023-05-27T06:57:10;102897.01;;;19.10;49.14
63194;BME280;49289;51.670;5.624;2023-05-27T06:58:57;102909.31;;;19.26;48.97
63194;BME280;49289;51.670;5.624;2023-05-27T07:00:44;102891.63;;;19.25;48.91
63194;BME280;49289;51.670;5.624;2023-05-27T07:02:31;102901.89;;;19.58;48.48
63194;BME280;49289;51.670;5.624;2023-05-27T07:04:19;102882.55;;;19.87;47.88
63194;BME280;49289;51.670;5.624;2023-05-27T07:06:06;102878.63;;;20.20;47.81
63194;BME280;49289;51.670;5.624;2023-05-27T07:07:53;102894.60;;;20.34;47.73
63194;BME280;49289;51.670;5.624;2023-05-27T07:09:40;102901.59;;;20.14;47.53
63194;BME280;49289;51.670;5.624;2023-05-27T07:11:29;102893.11;;;20.55;47.24
63194;BME280;49289;51.670;5.624;2023-05-27T07:13:16;102877.08;;;20.28;47.05
63194;BME280;49289;51.670;5.624;2023-05-27T07:15:03;102895.36;;;19.52;47.39
63194;BME280;49289;51.670;5.624;2023-05-27T07:16:50;102890.98;;;20.09;47.98
63194;BME280;49289;51.670;5.624;2023-05-27T07:18:37;102882.43;;;20.19;47.23
63194;BME280;49289;51.670;5.624;2023-05-27T07:20:24;102886.36;;;20.12;47.38
63194;BME280;49289;51.670;5.624;2023-05-27T07:22:11;102886.05;;;19.97;47.51
63194;BME280;49289;51.670;5.624;2023-05-27T07:23:59;102906.92;;;20.19;47.59
63194;BME280;49289;51.670;5.624;2023-05-27T07:25:46;102904.37;;;20.45;47.49
63194;BME280;49289;51.670;5.624;2023-05-27T07:27:34;102900.17;;;20.77;46.96
63194;BME280;49289;51.670;5.624;2023-05-27T07:29:22;102898.54;;;21.04;46.56
63194;BME280;49289;51.670;5.624;2023-05-27T07:31:10;102895.53;;;20.61;46.58
63194;BME280;49289;51.670;5.624;2023-05-27T07:32:58;102892.30;;;20.43;46.47
63194;BME280;49289;51.670;5.624;2023-05-27T07:34:45;102890.42;;;20.33;47.16
63194;BME280;49289;51.670;5.624;2023-05-27T07:36:33;102894.24;;;20.80;46.42
63194;BME280;49289;51.670;5.624;2023-05-27T07:38:19;102887.19;;;20.75;46.61
63194;BME280;49289;51.670;5.624;2023-05-27T07:40:08;102891.37;;;21.15;46.28
63194;BME280;49289;51.670;5.624;2023-05-27T07:41:56;102865.61;;;20.61;46.15
63194;BME280;49289;51.670;5.624;2023-05-27T07:43:44;102886.05;;;21.07;46.31
63194;BME280;49289;51.670;5.624;2023-05-27T07:45:32;102883.30;;;20.89;45.67
63194;BME280;49289;51.670;5.624;2023-05-27T07:47:20;102877.80;;;21.08;45.49
63194;BME280;49289;51.670;5.624;2023-05-27T07:49:08;102882.16;;;21.06;45.50
63194;BME280;49289;51.670;5.624;2023-05-27T07:50:56;102878.48;;;21.36;45.25
63194;BME280;49289;51.670;5.624;2023-05-27T07:52:44;102867.72;;;21.53;44.94
63194;BME280;49289;51.670;5.624;2023-05-27T07:54:31;102845.27;;;21.75;44.87
63194;BME280;49289;51.670;5.624;2023-05-27T07:56:18;102868.69;;;21.48;44.85
63194;BME280;49289;51.670;5.624;2023-05-27T07:58:05;102859.91;;;22.23;44.40
63194;BME280;49289;51.670;5.624;2023-05-27T07:59:53;102865.56;;;21.85;44.50
63194;BME280;49289;51.670;5.624;2023-05-27T08:01:41;102859.61;;;21.32;44.48
63194;BME280;49289;51.670;5.624;2023-05-27T08:03:30;102851.52;;;22.09;44.91
63194;BME280;49289;51.670;5.624;2023-05-27T08:05:18;102860.41;;;21.69;44.32
63194;BME280;49289;51.670;5.624;2023-05-27T08:07:05;102840.12;;;21.66;44.44
63194;BME280;49289;51.670;5.624;2023-05-27T08:08:52;102854.97;;;21.81;44.50
63194;BME280;49289;51.670;5.624;2023-05-27T08:10:39;102833.77;;;22.12;44.16
63194;BME280;49289;51.670;5.624;2023-05-27T08:12:26;102854.41;;;22.64;43.61
63194;BME280;49289;51.670;5.624;2023-05-27T08:14:13;102853.09;;;22.12;43.88
63194;BME280;49289;51.670;5.624;2023-05-27T08:16:00;102825.95;;;22.58;43.50
63194;BME280;49289;51.670;5.624;2023-05-27T08:17:47;102824.23;;;22.42;43.12
63194;BME280;49289;51.670;5.624;2023-05-27T08:19:34;102838.52;;;22.76;43.35
63194;BME280;49289;51.670;5.624;2023-05-27T08:21:21;102814.39;;;23.11;42.49
63194;BME280;49289;51.670;5.624;2023-05-27T08:23:10;102833.55;;;22.91;42.67
63194;BME280;49289;51.670;5.624;2023-05-27T08:24:57;102832.16;;;22.76;43.06
63194;BME280;49289;51.670;5.624;2023-05-27T08:26:44;102811.95;;;22.71;43.43
63194;BME280;49289;51.670;5.624;2023-05-27T08:28:31;102829.75;;;22.24;43.00
63194;BME280;49289;51.670;5.624;2023-05-27T08:30:19;102822.61;;;22.72;42.90
63194;BME280;49289;51.670;5.624;2023-05-27T08:32:06;102800.22;;;22.11;42.63
63194;BME280;49289;51.670;5.624;2023-05-27T08:33:53;102813.61;;;23.10;42.41
63194;BME280;49289;51.670;5.624;2023-05-27T08:35:40;102793.92;;;23.56;41.89
63194;BME280;49289;51.670;5.624;2023-05-27T08:37:27;102793.36;;;23.52;41.58
63194;BME280;49289;51.670;5.624;2023-05-27T08:39:14;102787.22;;;22.62;41.28
63194;BME280;49289;51.670;5.624;2023-05-27T08:41:01;102786.23;;;22.52;41.73
63194;BME280;49289;51.670;5.624;2023-05-27T08:42:48;102786.43;;;22.79;41.61
63194;BME280;49289;51.670;5.624;2023-05-27T08:44:35;102786.83;;;23.40;41.22
63194;BME280;49289;51.670;5.624;2023-05-27T08:46:22;102798.05;;;23.77;40.92
63194;BME280;49289;51.670;5.624;2023-05-27T08:48:09;102799.17;;;23.93;40.47
63194;BME280;49289;51.670;5.624;2023-05-27T08:49:56;102777.16;;;23.95;40.79
63194;BME280;49289;51.670;5.624;2023-05-27T08:51:45;102790.48;;;23.81;40.12
63194;BME280;49289;51.670;5.624;2023-05-27T08:53:32;102788.58;;;24.34;40.04
63194;BME280;49289;51.670;5.624;2023-05-27T08:55:20;102762.78;;;24.07;39.60
63194;BME280;49289;51.670;5.624;2023-05-27T08:57:07;102764.80;;;24.19;39.86
63194;BME280;49289;51.670;5.624;2023-05-27T08:58:54;102780.70;;;24.45;38.93
63194;BME280;49289;51.670;5.624;2023-05-27T09:00:41;102760.17;;;23.40;39.63
63194;BME280;49289;51.670;5.624;2023-05-27T09:02:28;102759.44;;;24.20;40.51
63194;BME280;49289;51.670;5.624;2023-05-27T09:04:15;102760.12;;;24.75;40.30
63194;BME280;49289;51.670;5.624;2023-05-27T09:06:02;102760.94;;;24.62;39.36
63194;BME280;49289;51.670;5.624;2023-05-27T09:07:49;102779.42;;;24.92;39.27
63194;BME280;49289;51.670;5.624;2023-05-27T09:09:36;102757.70;;;25.34;39.06
63194;BME280;49289;51.670;5.624;2023-05-27T09:11:31;102755.12;;;24.89;38.92
63194;BME280;49289;51.670;5.624;2023-05-27T09:13:24;102756.06;;;25.38;38.78
63194;BME280;49289;51.670;5.624;2023-05-27T09:15:05;102750.66;;;25.74;38.75
63194;BME280;49289;51.670;5.624;2023-05-27T09:16:54;102768.08;;;26.14;38.77
63194;BME280;49289;51.670;5.624;2023-05-27T09:18:41;102745.73;;;25.40;36.79
63194;BME280;49289;51.670;5.624;2023-05-27T09:20:29;102742.64;;;25.64;37.60
63194;BME280;49289;51.670;5.624;2023-05-27T09:22:24;102760.98;;;26.02;37.91
63194;BME280;49289;51.670;5.624;2023-05-27T09:24:12;102757.69;;;25.70;36.57